sensor_id;sensor_type;location;lat;lon;timestamp;temperature;humidity
76099;DHT22;64828;49.956;8.636;2024-02-21T00:00:10;7.70;85.80
76099;DHT22;64828;49.956;8.636;2024-02-21T00:00:26;7.70;85.80
76099;DHT22;64828;49.956;8.636;2024-02-21T00:00:42;7.70;85.80
76099;DHT22;64828;49.956;8.636;2024-02-21T00:00:57;7.70;86.00
76099;DHT22;64828;49.956;8.636;2024-02-21T00:01:16;7.70;86.00
76099;DHT22;64828;49.956;8.636;2024-02-21T00:01:32;7.70;86.20
76099;DHT22;64828;49.956;8.636;2024-02-21T00:01:48;7.60;86.30
76099;DHT22;64828;49.956;8.636;2024-02-21T00:02:03;7.60;86.20
76099;DHT22;64828;49.956;8.636;2024-02-21T00:02:19;7.70;85.90
76099;DHT22;64828;49.956;8.636;2024-02-21T00:02:35;7.60;86.00
76099;DHT22;64828;49.956;8.636;2024-02-21T00:02:51;7.60;86.10
76099;DHT22;64828;49.956;8.636;2024-02-21T00:03:06;7.60;86.30
76099;DHT22;64828;49.956;8.636;2024-02-21T00:03:22;7.60;86.30
76099;DHT22;64828;49.956;8.636;2024-02-21T00:03:37;7.60;86.30
76099;DHT22;64828;49.956;8.636;2024-02-21T00:03:53;7.60;86.20
76099;DHT22;64828;49.956;8.636;2024-02-21T00:04:09;7.60;86.30
76099;DHT22;64828;49.956;8.636;2024-02-21T00:04:24;7.60;86.40
76099;DHT22;64828;49.956;8.636;2024-02-21T00:04:40;7.60;86.40
76099;DHT22;64828;49.956;8.636;2024-02-21T00:04:58;7.60;86.40
76099;DHT22;64828;49.956;8.636;2024-02-21T00:05:14;7.60;86.40
76099;DHT22;64828;49.956;8.636;2024-02-21T00:05:30;7.60;86.40
76099;DHT22;64828;49.956;8.636;2024-02-21T00:05:45;7.60;86.40
76099;DHT22;64828;49.956;8.636;2024-02-21T00:06:01;7.60;86.40
76099;DHT22;64828;49.956;8.636;2024-02-21T00:06:17;7.60;86.50
76099;DHT22;64828;49.956;8.636;2024-02-21T00:06:33;7.60;86.20
76099;DHT22;64828;49.956;8.636;2024-02-21T00:06:48;7.60;86.20
76099;DHT22;64828;49.956;8.636;2024-02-21T00:07:04;7.60;86.20
76099;DHT22;64828;49.956;8.636;2024-02-21T00:07:20;7.60;86.30
76099;DHT22;64828;49.956;8.636;2024-02-21T00:07:35;7.60;86.40
76099;DHT22;64828;49.956;8.636;2024-02-21T00:07:51;7.60;86.40
76099;DHT22;64828;49.956;8.636;2024-02-21T00:08:07;7.60;86.50
76099;DHT22;64828;49.956;8.636;2024-02-21T00:08:22;7.60;86.60
76099;DHT22;64828;49.956;8.636;2024-02-21T00:08:38;7.60;86.60
76099;DHT22;64828;49.956;8.636;2024-02-21T00:08:53;7.50;86.60
76099;DHT22;64828;49.956;8.636;2024-02-21T00:09:09;7.50;86.50
76099;DHT22;64828;49.956;8.636;2024-02-21T00:09:25;7.50;86.30
76099;DHT22;64828;49.956;8.636;2024-02-21T00:09:40;7.60;86.30
76099;DHT22;64828;49.956;8.636;2024-02-21T00:09:56;7.60;86.30
76099;DHT22;64828;49.956;8.636;2024-02-21T00:10:11;7.60;86.40
76099;DHT22;64828;49.956;8.636;2024-02-21T00:10:27;7.60;86.20
76099;DHT22;64828;49.956;8.636;2024-02-21T00:10:43;7.60;86.30
76099;DHT22;64828;49.956;8.636;2024-02-21T00:10:58;7.60;86.40
76099;DHT22;64828;49.956;8.636;2024-02-21T00:11:14;7.50;86.40
76099;DHT22;64828;49.956;8.636;2024-02-21T00:11:29;7.50;86.40
76099;DHT22;64828;49.956;8.636;2024-02-21T00:11:45;7.50;86.50
76099;DHT22;64828;49.956;8.636;2024-02-21T00:12:01;7.60;86.40
76099;DHT22;64828;49.956;8.636;2024-02-21T00:12:16;7.50;86.40
76099;DHT22;64828;49.956;8.636;2024-02-21T00:12:32;7.50;86.40
76099;DHT22;64828;49.956;8.636;2024-02-21T00:12:48;7.50;86.60
76099;DHT22;64828;49.956;8.636;2024-02-21T00:13:03;7.60;86.60
76099;DHT22;64828;49.956;8.636;2024-02-21T00:13:19;7.60;86.80
76099;DHT22;64828;49.956;8.636;2024-02-21T00:13:35;7.60;86.90
76099;DHT22;64828;49.956;8.636;2024-02-21T00:13:50;7.50;86.80
76099;DHT22;64828;49.956;8.636;2024-02-21T00:14:06;7.60;86.70
76099;DHT22;64828;49.956;8.636;2024-02-21T00:14:21;7.50;86.50
76099;DHT22;64828;49.956;8.636;2024-02-21T00:14:37;7.50;86.50
76099;DHT22;64828;49.956;8.636;2024-02-21T00:14:52;7.60;86.60
76099;DHT22;64828;49.956;8.636;2024-02-21T00:15:08;7.50;86.60
76099;DHT22;64828;49.956;8.636;2024-02-21T00:15:24;7.50;86.80
76099;DHT22;64828;49.956;8.636;2024-02-21T00:15:40;7.50;86.80
76099;DHT22;64828;49.956;8.636;2024-02-21T00:15:55;7.50;86.90
76099;DHT22;64828;49.956;8.636;2024-02-21T00:16:11;7.50;86.70
76099;DHT22;64828;49.956;8.636;2024-02-21T00:16:27;7.50;86.60
76099;DHT22;64828;49.956;8.636;2024-02-21T00:16:42;7.60;86.60
76099;DHT22;64828;49.956;8.636;2024-02-21T00:16:58;7.50;86.70
76099;DHT22;64828;49.956;8.636;2024-02-21T00:17:14;7.50;86.90
76099;DHT22;64828;49.956;8.636;2024-02-21T00:17:29;7.50;86.90
76099;DHT22;64828;49.956;8.636;2024-02-21T00:17:45;7.50;87.00
76099;DHT22;64828;49.956;8.636;2024-02-21T00:18:01;7.50;87.00
76099;DHT22;64828;49.956;8.636;2024-02-21T00:18:16;7.50;87.00
76099;DHT22;64828;49.956;8.636;2024-02-21T00:18:32;7.50;86.90
76099;DHT22;64828;49.956;8.636;2024-02-21T00:18:48;7.50;86.90
76099;DHT22;64828;49.956;8.636;2024-02-21T00:19:03;7.50;86.90
76099;DHT22;64828;49.956;8.636;2024-02-21T00:19:19;7.50;87.10
76099;DHT22;64828;49.956;8.636;2024-02-21T00:19:35;7.50;87.10
76099;DHT22;64828;49.956;8.636;2024-02-21T00:19:50;7.50;87.20
76099;DHT22;64828;49.956;8.636;2024-02-21T00:20:07;7.50;87.30
76099;DHT22;64828;49.956;8.636;2024-02-21T00:20:23;7.50;87.20
76099;DHT22;64828;49.956;8.636;2024-02-21T00:20:40;7.50;87.10
76099;DHT22;64828;49.956;8.636;2024-02-21T00:20:56;7.50;86.90
76099;DHT22;64828;49.956;8.636;2024-02-21T00:21:12;7.50;86.90
76099;DHT22;64828;49.956;8.636;2024-02-21T00:21:33;7.50;86.90
76099;DHT22;64828;49.956;8.636;2024-02-21T00:21:48;7.50;86.80
76099;DHT22;64828;49.956;8.636;2024-02-21T00:22:04;7.50;86.90
76099;DHT22;64828;49.956;8.636;2024-02-21T00:22:19;7.50;87.00
76099;DHT22;64828;49.956;8.636;2024-02-21T00:22:35;7.50;86.90
76099;DHT22;64828;49.956;8.636;2024-02-21T00:22:51;7.50;86.90
76099;DHT22;64828;49.956;8.636;2024-02-21T00:23:06;7.50;87.00
76099;DHT22;64828;49.956;8.636;2024-02-21T00:23:22;7.50;87.10
76099;DHT22;64828;49.956;8.636;2024-02-21T00:23:40;7.50;87.00
76099;DHT22;64828;49.956;8.636;2024-02-21T00:23:56;7.50;86.80
76099;DHT22;64828;49.956;8.636;2024-02-21T00:24:11;7.50;86.60
76099;DHT22;64828;49.956;8.636;2024-02-21T00:24:27;7.50;86.70
76099;DHT22;64828;49.956;8.636;2024-02-21T00:24:43;7.50;86.90
76099;DHT22;64828;49.956;8.636;2024-02-21T00:24:59;7.50;86.90
76099;DHT22;64828;49.956;8.636;2024-02-21T00:25:14;7.50;86.90
76099;DHT22;64828;49.956;8.636;2024-02-21T00:25:30;7.50;86.90
76099;DHT22;64828;49.956;8.636;2024-02-21T00:25:46;7.50;86.90
76099;DHT22;64828;49.956;8.636;2024-02-21T00:26:01;7.50;87.10
76099;DHT22;64828;49.956;8.636;2024-02-21T00:26:17;7.50;87.10
76099;DHT22;64828;49.956;8.636;2024-02-21T00:26:32;7.50;87.20
76099;DHT22;64828;49.956;8.636;2024-02-21T00:26:48;7.50;87.20
76099;DHT22;64828;49.956;8.636;2024-02-21T00:27:04;7.50;87.20
76099;DHT22;64828;49.956;8.636;2024-02-21T00:27:19;7.50;87.10
76099;DHT22;64828;49.956;8.636;2024-02-21T00:27:35;7.40;87.20
76099;DHT22;64828;49.956;8.636;2024-02-21T00:27:50;7.50;87.00
76099;DHT22;64828;49.956;8.636;2024-02-21T00:28:06;7.50;86.70
76099;DHT22;64828;49.956;8.636;2024-02-21T00:28:22;7.50;86.80
76099;DHT22;64828;49.956;8.636;2024-02-21T00:28:37;7.50;86.70
76099;DHT22;64828;49.956;8.636;2024-02-21T00:28:53;7.50;86.70
76099;DHT22;64828;49.956;8.636;2024-02-21T00:29:08;7.50;86.70
76099;DHT22;64828;49.956;8.636;2024-02-21T00:29:24;7.50;86.80
76099;DHT22;64828;49.956;8.636;2024-02-21T00:29:40;7.50;86.80
76099;DHT22;64828;49.956;8.636;2024-02-21T00:29:55;7.50;86.80
76099;DHT22;64828;49.956;8.636;2024-02-21T00:30:11;7.50;86.90
76099;DHT22;64828;49.956;8.636;2024-02-21T00:30:27;7.50;86.80
76099;DHT22;64828;49.956;8.636;2024-02-21T00:30:42;7.50;86.80
76099;DHT22;64828;49.956;8.636;2024-02-21T00:30:58;7.50;86.50
76099;DHT22;64828;49.956;8.636;2024-02-21T00:31:14;7.50;86.50
76099;DHT22;64828;49.956;8.636;2024-02-21T00:31:29;7.50;86.60
76099;DHT22;64828;49.956;8.636;2024-02-21T00:31:45;7.50;86.70
76099;DHT22;64828;49.956;8.636;2024-02-21T00:32:00;7.50;86.60
76099;DHT22;64828;49.956;8.636;2024-02-21T00:32:16;7.50;86.60
76099;DHT22;64828;49.956;8.636;2024-02-21T00:32:32;7.50;86.40
76099;DHT22;64828;49.956;8.636;2024-02-21T00:32:49;7.50;86.40
76099;DHT22;64828;49.956;8.636;2024-02-21T00:33:05;7.50;86.50
76099;DHT22;64828;49.956;8.636;2024-02-21T00:33:20;7.50;86.50
76099;DHT22;64828;49.956;8.636;2024-02-21T00:33:36;7.50;86.50
76099;DHT22;64828;49.956;8.636;2024-02-21T00:33:51;7.50;86.60
76099;DHT22;64828;49.956;8.636;2024-02-21T00:34:07;7.50;86.60
76099;DHT22;64828;49.956;8.636;2024-02-21T00:34:23;7.50;86.60
76099;DHT22;64828;49.956;8.636;2024-02-21T00:34:38;7.50;86.50
76099;DHT22;64828;49.956;8.636;2024-02-21T00:34:54;7.50;86.60
76099;DHT22;64828;49.956;8.636;2024-02-21T00:35:09;7.50;86.70
76099;DHT22;64828;49.956;8.636;2024-02-21T00:35:25;7.50;86.70
76099;DHT22;64828;49.956;8.636;2024-02-21T00:35:41;7.50;86.80
76099;DHT22;64828;49.956;8.636;2024-02-21T00:35:56;7.50;86.80
76099;DHT22;64828;49.956;8.636;2024-02-21T00:36:12;7.50;86.80
76099;DHT22;64828;49.956;8.636;2024-02-21T00:36:28;7.50;86.80
76099;DHT22;64828;49.956;8.636;2024-02-21T00:36:43;7.50;86.60
76099;DHT22;64828;49.956;8.636;2024-02-21T00:36:59;7.50;86.50
76099;DHT22;64828;49.956;8.636;2024-02-21T00:37:14;7.50;86.40
76099;DHT22;64828;49.956;8.636;2024-02-21T00:37:31;7.50;86.40
76099;DHT22;64828;49.956;8.636;2024-02-21T00:37:47;7.50;86.50
76099;DHT22;64828;49.956;8.636;2024-02-21T00:38:03;7.50;86.60
76099;DHT22;64828;49.956;8.636;2024-02-21T00:38:18;7.50;86.70
76099;DHT22;64828;49.956;8.636;2024-02-21T00:38:34;7.50;86.70
76099;DHT22;64828;49.956;8.636;2024-02-21T00:38:49;7.50;86.60
76099;DHT22;64828;49.956;8.636;2024-02-21T00:39:05;7.50;86.60
76099;DHT22;64828;49.956;8.636;2024-02-21T00:39:21;7.50;86.70
76099;DHT22;64828;49.956;8.636;2024-02-21T00:39:37;7.50;86.70
76099;DHT22;64828;49.956;8.636;2024-02-21T00:39:54;7.50;86.80
76099;DHT22;64828;49.956;8.636;2024-02-21T00:40:10;7.50;86.60
76099;DHT22;64828;49.956;8.636;2024-02-21T00:40:26;7.50;86.50
76099;DHT22;64828;49.956;8.636;2024-02-21T00:40:41;7.50;86.50
76099;DHT22;64828;49.956;8.636;2024-02-21T00:40:57;7.50;86.50
76099;DHT22;64828;49.956;8.636;2024-02-21T00:41:13;7.50;86.40
76099;DHT22;64828;49.956;8.636;2024-02-21T00:41:28;7.50;86.40
76099;DHT22;64828;49.956;8.636;2024-02-21T00:41:44;7.50;86.50
76099;DHT22;64828;49.956;8.636;2024-02-21T00:41:59;7.50;86.60
76099;DHT22;64828;49.956;8.636;2024-02-21T00:42:16;7.50;86.70
76099;DHT22;64828;49.956;8.636;2024-02-21T00:42:31;7.50;86.80
76099;DHT22;64828;49.956;8.636;2024-02-21T00:42:47;7.50;86.80
76099;DHT22;64828;49.956;8.636;2024-02-21T00:43:03;7.50;86.60
76099;DHT22;64828;49.956;8.636;2024-02-21T00:43:19;7.50;86.40
76099;DHT22;64828;49.956;8.636;2024-02-21T00:43:34;7.50;86.30
76099;DHT22;64828;49.956;8.636;2024-02-21T00:43:50;7.50;86.40
76099;DHT22;64828;49.956;8.636;2024-02-21T00:44:05;7.50;86.50
76099;DHT22;64828;49.956;8.636;2024-02-21T00:44:21;7.50;86.40
76099;DHT22;64828;49.956;8.636;2024-02-21T00:44:37;7.50;86.20
76099;DHT22;64828;49.956;8.636;2024-02-21T00:44:52;7.60;86.20
76099;DHT22;64828;49.956;8.636;2024-02-21T00:45:08;7.50;86.40
76099;DHT22;64828;49.956;8.636;2024-02-21T00:45:24;7.50;86.50
76099;DHT22;64828;49.956;8.636;2024-02-21T00:45:40;7.50;86.50
76099;DHT22;64828;49.956;8.636;2024-02-21T00:45:55;7.50;86.60
76099;DHT22;64828;49.956;8.636;2024-02-21T00:46:11;7.50;86.50
76099;DHT22;64828;49.956;8.636;2024-02-21T00:46:27;7.50;86.50
76099;DHT22;64828;49.956;8.636;2024-02-21T00:46:42;7.50;86.60
76099;DHT22;64828;49.956;8.636;2024-02-21T00:46:58;7.50;86.50
76099;DHT22;64828;49.956;8.636;2024-02-21T00:47:14;7.50;86.40
76099;DHT22;64828;49.956;8.636;2024-02-21T00:47:29;7.50;86.50
76099;DHT22;64828;49.956;8.636;2024-02-21T00:47:45;7.50;86.60
76099;DHT22;64828;49.956;8.636;2024-02-21T00:48:01;7.50;86.40
76099;DHT22;64828;49.956;8.636;2024-02-21T00:48:16;7.50;86.40
76099;DHT22;64828;49.956;8.636;2024-02-21T00:48:32;7.50;86.40
76099;DHT22;64828;49.956;8.636;2024-02-21T00:48:48;7.50;86.40
76099;DHT22;64828;49.956;8.636;2024-02-21T00:49:05;7.50;86.40
76099;DHT22;64828;49.956;8.636;2024-02-21T00:49:20;7.50;86.60
76099;DHT22;64828;49.956;8.636;2024-02-21T00:49:36;7.50;86.50
76099;DHT22;64828;49.956;8.636;2024-02-21T00:49:52;7.50;86.50
76099;DHT22;64828;49.956;8.636;2024-02-21T00:50:08;7.50;86.50
76099;DHT22;64828;49.956;8.636;2024-02-21T00:50:24;7.50;86.40
76099;DHT22;64828;49.956;8.636;2024-02-21T00:50:40;7.60;86.30
76099;DHT22;64828;49.956;8.636;2024-02-21T00:50:56;7.50;86.40
76099;DHT22;64828;49.956;8.636;2024-02-21T00:51:11;7.50;86.30
76099;DHT22;64828;49.956;8.636;2024-02-21T00:51:27;7.50;86.30
76099;DHT22;64828;49.956;8.636;2024-02-21T00:51:42;7.50;86.30
76099;DHT22;64828;49.956;8.636;2024-02-21T00:51:58;7.50;86.50
76099;DHT22;64828;49.956;8.636;2024-02-21T00:52:14;7.50;86.60
76099;DHT22;64828;49.956;8.636;2024-02-21T00:52:29;7.50;86.70
76099;DHT22;64828;49.956;8.636;2024-02-21T00:52:45;7.50;86.70
76099;DHT22;64828;49.956;8.636;2024-02-21T00:53:00;7.50;86.60
76099;DHT22;64828;49.956;8.636;2024-02-21T00:53:16;7.50;86.50
76099;DHT22;64828;49.956;8.636;2024-02-21T00:53:31;7.50;86.40
76099;DHT22;64828;49.956;8.636;2024-02-21T00:53:47;7.60;86.30
76099;DHT22;64828;49.956;8.636;2024-02-21T00:54:03;7.50;86.30
76099;DHT22;64828;49.956;8.636;2024-02-21T00:54:18;7.50;86.20
76099;DHT22;64828;49.956;8.636;2024-02-21T00:54:34;7.50;86.30
76099;DHT22;64828;49.956;8.636;2024-02-21T00:54:49;7.50;86.30
76099;DHT22;64828;49.956;8.636;2024-02-21T00:55:05;7.50;86.40
76099;DHT22;64828;49.956;8.636;2024-02-21T00:55:22;7.50;86.40
76099;DHT22;64828;49.956;8.636;2024-02-21T00:55:37;7.50;86.50
76099;DHT22;64828;49.956;8.636;2024-02-21T00:55:53;7.60;86.40
76099;DHT22;64828;49.956;8.636;2024-02-21T00:56:08;7.50;86.30
76099;DHT22;64828;49.956;8.636;2024-02-21T00:56:24;7.60;86.20
76099;DHT22;64828;49.956;8.636;2024-02-21T00:56:39;7.50;86.30
76099;DHT22;64828;49.956;8.636;2024-02-21T00:56:55;7.50;86.30
76099;DHT22;64828;49.956;8.636;2024-02-21T00:57:11;7.50;86.40
76099;DHT22;64828;49.956;8.636;2024-02-21T00:57:26;7.50;86.30
76099;DHT22;64828;49.956;8.636;2024-02-21T00:57:42;7.50;86.20
76099;DHT22;64828;49.956;8.636;2024-02-21T00:57:57;7.50;86.30
76099;DHT22;64828;49.956;8.636;2024-02-21T00:58:13;7.50;86.20
76099;DHT22;64828;49.956;8.636;2024-02-21T00:58:28;7.50;86.20
76099;DHT22;64828;49.956;8.636;2024-02-21T00:58:44;7.50;86.10
76099;DHT22;64828;49.956;8.636;2024-02-21T00:59:00;7.50;86.10
76099;DHT22;64828;49.956;8.636;2024-02-21T00:59:15;7.50;86.00
76099;DHT22;64828;49.956;8.636;2024-02-21T00:59:31;7.50;86.00
76099;DHT22;64828;49.956;8.636;2024-02-21T00:59:47;7.50;86.20
76099;DHT22;64828;49.956;8.636;2024-02-21T01:00:03;7.50;86.30
76099;DHT22;64828;49.956;8.636;2024-02-21T01:00:20;7.50;86.20
76099;DHT22;64828;49.956;8.636;2024-02-21T01:00:35;7.50;86.20
76099;DHT22;64828;49.956;8.636;2024-02-21T01:00:51;7.50;86.30
76099;DHT22;64828;49.956;8.636;2024-02-21T01:01:06;7.50;86.40
76099;DHT22;64828;49.956;8.636;2024-02-21T01:01:23;7.50;86.40
76099;DHT22;64828;49.956;8.636;2024-02-21T01:01:40;7.50;86.40
76099;DHT22;64828;49.956;8.636;2024-02-21T01:01:58;7.50;86.30
76099;DHT22;64828;49.956;8.636;2024-02-21T01:02:13;7.50;86.30
76099;DHT22;64828;49.956;8.636;2024-02-21T01:02:29;7.50;86.30
76099;DHT22;64828;49.956;8.636;2024-02-21T01:02:46;7.50;86.20
76099;DHT22;64828;49.956;8.636;2024-02-21T01:03:02;7.50;86.20
76099;DHT22;64828;49.956;8.636;2024-02-21T01:03:18;7.50;86.20
76099;DHT22;64828;49.956;8.636;2024-02-21T01:03:33;7.50;86.40
76099;DHT22;64828;49.956;8.636;2024-02-21T01:03:49;7.50;86.40
76099;DHT22;64828;49.956;8.636;2024-02-21T01:04:05;7.50;86.40
76099;DHT22;64828;49.956;8.636;2024-02-21T01:04:20;7.50;86.40
76099;DHT22;64828;49.956;8.636;2024-02-21T01:04:36;7.50;86.50
76099;DHT22;64828;49.956;8.636;2024-02-21T01:04:52;7.50;86.40
76099;DHT22;64828;49.956;8.636;2024-02-21T01:05:07;7.50;86.40
76099;DHT22;64828;49.956;8.636;2024-02-21T01:05:23;7.50;86.40
76099;DHT22;64828;49.956;8.636;2024-02-21T01:05:38;7.50;86.50
76099;DHT22;64828;49.956;8.636;2024-02-21T01:05:54;7.50;86.40
76099;DHT22;64828;49.956;8.636;2024-02-21T01:06:10;7.40;86.40
76099;DHT22;64828;49.956;8.636;2024-02-21T01:06:25;7.50;86.30
76099;DHT22;64828;49.956;8.636;2024-02-21T01:06:41;7.40;86.30
76099;DHT22;64828;49.956;8.636;2024-02-21T01:06:59;7.50;86.30
76099;DHT22;64828;49.956;8.636;2024-02-21T01:07:15;7.50;86.30
76099;DHT22;64828;49.956;8.636;2024-02-21T01:07:30;7.50;86.10
76099;DHT22;64828;49.956;8.636;2024-02-21T01:07:46;7.50;86.10
76099;DHT22;64828;49.956;8.636;2024-02-21T01:08:02;7.50;86.20
76099;DHT22;64828;49.956;8.636;2024-02-21T01:08:17;7.50;86.20
76099;DHT22;64828;49.956;8.636;2024-02-21T01:08:33;7.50;86.30
76099;DHT22;64828;49.956;8.636;2024-02-21T01:08:49;7.40;86.40
76099;DHT22;64828;49.956;8.636;2024-02-21T01:09:04;7.40;86.40
76099;DHT22;64828;49.956;8.636;2024-02-21T01:09:20;7.40;86.40
76099;DHT22;64828;49.956;8.636;2024-02-21T01:09:35;7.40;86.50
76099;DHT22;64828;49.956;8.636;2024-02-21T01:09:51;7.40;86.50
76099;DHT22;64828;49.956;8.636;2024-02-21T01:10:08;7.40;86.60
76099;DHT22;64828;49.956;8.636;2024-02-21T01:10:24;7.40;86.60
76099;DHT22;64828;49.956;8.636;2024-02-21T01:10:39;7.30;86.60
76099;DHT22;64828;49.956;8.636;2024-02-21T01:10:55;7.40;86.50
76099;DHT22;64828;49.956;8.636;2024-02-21T01:11:10;7.40;86.40
76099;DHT22;64828;49.956;8.636;2024-02-21T01:11:26;7.40;86.30
76099;DHT22;64828;49.956;8.636;2024-02-21T01:11:42;7.40;86.30
76099;DHT22;64828;49.956;8.636;2024-02-21T01:11:58;7.40;86.20
76099;DHT22;64828;49.956;8.636;2024-02-21T01:12:14;7.40;86.20
76099;DHT22;64828;49.956;8.636;2024-02-21T01:12:29;7.40;86.20
76099;DHT22;64828;49.956;8.636;2024-02-21T01:12:45;7.40;86.20
76099;DHT22;64828;49.956;8.636;2024-02-21T01:13:00;7.40;86.20
76099;DHT22;64828;49.956;8.636;2024-02-21T01:13:16;7.40;86.20
76099;DHT22;64828;49.956;8.636;2024-02-21T01:13:31;7.40;86.30
76099;DHT22;64828;49.956;8.636;2024-02-21T01:13:48;7.40;86.40
76099;DHT22;64828;49.956;8.636;2024-02-21T01:14:03;7.40;86.30
76099;DHT22;64828;49.956;8.636;2024-02-21T01:14:19;7.40;86.30
76099;DHT22;64828;49.956;8.636;2024-02-21T01:14:35;7.40;86.30
76099;DHT22;64828;49.956;8.636;2024-02-21T01:14:50;7.40;86.30
76099;DHT22;64828;49.956;8.636;2024-02-21T01:15:06;7.40;86.30
76099;DHT22;64828;49.956;8.636;2024-02-21T01:15:22;7.30;86.20
76099;DHT22;64828;49.956;8.636;2024-02-21T01:15:37;7.40;86.30
76099;DHT22;64828;49.956;8.636;2024-02-21T01:15:53;7.40;86.20
76099;DHT22;64828;49.956;8.636;2024-02-21T01:16:09;7.40;86.20
76099;DHT22;64828;49.956;8.636;2024-02-21T01:16:26;7.40;86.10
76099;DHT22;64828;49.956;8.636;2024-02-21T01:16:41;7.40;86.30
76099;DHT22;64828;49.956;8.636;2024-02-21T01:16:57;7.40;86.40
76099;DHT22;64828;49.956;8.636;2024-02-21T01:17:13;7.40;86.30
76099;DHT22;64828;49.956;8.636;2024-02-21T01:17:29;7.40;86.30
76099;DHT22;64828;49.956;8.636;2024-02-21T01:17:44;7.40;86.40
76099;DHT22;64828;49.956;8.636;2024-02-21T01:18:00;7.40;86.20
76099;DHT22;64828;49.956;8.636;2024-02-21T01:18:15;7.40;86.20
76099;DHT22;64828;49.956;8.636;2024-02-21T01:18:31;7.40;86.10
76099;DHT22;64828;49.956;8.636;2024-02-21T01:18:47;7.40;86.00
76099;DHT22;64828;49.956;8.636;2024-02-21T01:19:03;7.40;86.00
76099;DHT22;64828;49.956;8.636;2024-02-21T01:19:19;7.40;86.10
76099;DHT22;64828;49.956;8.636;2024-02-21T01:19:34;7.40;86.10
76099;DHT22;64828;49.956;8.636;2024-02-21T01:19:50;7.30;86.20
76099;DHT22;64828;49.956;8.636;2024-02-21T01:20:06;7.30;86.30
76099;DHT22;64828;49.956;8.636;2024-02-21T01:20:22;7.30;86.50
76099;DHT22;64828;49.956;8.636;2024-02-21T01:20:37;7.40;86.50
76099;DHT22;64828;49.956;8.636;2024-02-21T01:20:53;7.30;86.40
76099;DHT22;64828;49.956;8.636;2024-02-21T01:21:09;7.40;86.30
76099;DHT22;64828;49.956;8.636;2024-02-21T01:21:25;7.40;86.10
76099;DHT22;64828;49.956;8.636;2024-02-21T01:21:40;7.40;86.20
76099;DHT22;64828;49.956;8.636;2024-02-21T01:21:56;7.40;86.20
76099;DHT22;64828;49.956;8.636;2024-02-21T01:22:12;7.40;86.20
76099;DHT22;64828;49.956;8.636;2024-02-21T01:22:27;7.40;86.00
76099;DHT22;64828;49.956;8.636;2024-02-21T01:22:43;7.40;86.00
76099;DHT22;64828;49.956;8.636;2024-02-21T01:22:59;7.40;86.00
76099;DHT22;64828;49.956;8.636;2024-02-21T01:23:15;7.40;86.00
76099;DHT22;64828;49.956;8.636;2024-02-21T01:23:30;7.40;86.10
76099;DHT22;64828;49.956;8.636;2024-02-21T01:23:46;7.40;86.00
76099;DHT22;64828;49.956;8.636;2024-02-21T01:24:01;7.40;86.10
76099;DHT22;64828;49.956;8.636;2024-02-21T01:24:17;7.40;86.10
76099;DHT22;64828;49.956;8.636;2024-02-21T01:24:33;7.40;86.20
76099;DHT22;64828;49.956;8.636;2024-02-21T01:24:48;7.40;86.10
76099;DHT22;64828;49.956;8.636;2024-02-21T01:25:04;7.30;86.20
76099;DHT22;64828;49.956;8.636;2024-02-21T01:25:21;7.30;86.40
76099;DHT22;64828;49.956;8.636;2024-02-21T01:25:36;7.30;86.30
76099;DHT22;64828;49.956;8.636;2024-02-21T01:25:52;7.30;86.30
76099;DHT22;64828;49.956;8.636;2024-02-21T01:26:07;7.40;86.40
76099;DHT22;64828;49.956;8.636;2024-02-21T01:26:23;7.30;86.40
76099;DHT22;64828;49.956;8.636;2024-02-21T01:26:39;7.30;86.40
76099;DHT22;64828;49.956;8.636;2024-02-21T01:26:54;7.30;86.50
76099;DHT22;64828;49.956;8.636;2024-02-21T01:27:10;7.30;86.40
76099;DHT22;64828;49.956;8.636;2024-02-21T01:27:25;7.30;86.40
76099;DHT22;64828;49.956;8.636;2024-02-21T01:27:41;7.30;86.40
76099;DHT22;64828;49.956;8.636;2024-02-21T01:27:57;7.30;86.50
76099;DHT22;64828;49.956;8.636;2024-02-21T01:28:12;7.30;86.40
76099;DHT22;64828;49.956;8.636;2024-02-21T01:28:28;7.30;86.30
76099;DHT22;64828;49.956;8.636;2024-02-21T01:28:43;7.30;86.30
76099;DHT22;64828;49.956;8.636;2024-02-21T01:28:59;7.40;86.30
76099;DHT22;64828;49.956;8.636;2024-02-21T01:29:15;7.30;86.30
76099;DHT22;64828;49.956;8.636;2024-02-21T01:29:30;7.30;86.30
76099;DHT22;64828;49.956;8.636;2024-02-21T01:29:46;7.30;86.40
76099;DHT22;64828;49.956;8.636;2024-02-21T01:30:03;7.30;86.40
76099;DHT22;64828;49.956;8.636;2024-02-21T01:30:19;7.30;86.20
76099;DHT22;64828;49.956;8.636;2024-02-21T01:30:35;7.40;86.10
76099;DHT22;64828;49.956;8.636;2024-02-21T01:30:51;7.40;86.10
76099;DHT22;64828;49.956;8.636;2024-02-21T01:31:07;7.30;86.20
76099;DHT22;64828;49.956;8.636;2024-02-21T01:31:22;7.30;86.30
76099;DHT22;64828;49.956;8.636;2024-02-21T01:31:38;7.30;86.40
76099;DHT22;64828;49.956;8.636;2024-02-21T01:31:54;7.30;86.40
76099;DHT22;64828;49.956;8.636;2024-02-21T01:32:09;7.30;86.50
76099;DHT22;64828;49.956;8.636;2024-02-21T01:32:25;7.30;86.50
76099;DHT22;64828;49.956;8.636;2024-02-21T01:32:40;7.30;86.60
76099;DHT22;64828;49.956;8.636;2024-02-21T01:32:56;7.30;86.60
76099;DHT22;64828;49.956;8.636;2024-02-21T01:33:12;7.30;86.50
76099;DHT22;64828;49.956;8.636;2024-02-21T01:33:27;7.30;86.60
76099;DHT22;64828;49.956;8.636;2024-02-21T01:33:43;7.30;86.60
76099;DHT22;64828;49.956;8.636;2024-02-21T01:33:58;7.30;86.60
76099;DHT22;64828;49.956;8.636;2024-02-21T01:34:14;7.30;86.60
76099;DHT22;64828;49.956;8.636;2024-02-21T01:34:30;7.30;86.50
76099;DHT22;64828;49.956;8.636;2024-02-21T01:34:45;7.30;86.50
76099;DHT22;64828;49.956;8.636;2024-02-21T01:35:01;7.30;86.50
76099;DHT22;64828;49.956;8.636;2024-02-21T01:35:17;7.30;86.50
76099;DHT22;64828;49.956;8.636;2024-02-21T01:35:34;7.30;86.40
76099;DHT22;64828;49.956;8.636;2024-02-21T01:35:50;7.30;86.40
76099;DHT22;64828;49.956;8.636;2024-02-21T01:36:06;7.30;86.50
76099;DHT22;64828;49.956;8.636;2024-02-21T01:36:22;7.30;86.50
76099;DHT22;64828;49.956;8.636;2024-02-21T01:36:37;7.30;86.60
76099;DHT22;64828;49.956;8.636;2024-02-21T01:36:53;7.30;86.60
76099;DHT22;64828;49.956;8.636;2024-02-21T01:37:08;7.30;86.50
76099;DHT22;64828;49.956;8.636;2024-02-21T01:37:24;7.30;86.40
76099;DHT22;64828;49.956;8.636;2024-02-21T01:37:40;7.40;86.40
76099;DHT22;64828;49.956;8.636;2024-02-21T01:37:56;7.30;86.30
76099;DHT22;64828;49.956;8.636;2024-02-21T01:38:13;7.30;86.30
76099;DHT22;64828;49.956;8.636;2024-02-21T01:38:28;7.30;86.30
76099;DHT22;64828;49.956;8.636;2024-02-21T01:38:44;7.30;86.40
76099;DHT22;64828;49.956;8.636;2024-02-21T01:39:00;7.30;86.40
76099;DHT22;64828;49.956;8.636;2024-02-21T01:39:15;7.30;86.40
76099;DHT22;64828;49.956;8.636;2024-02-21T01:39:31;7.40;86.30
76099;DHT22;64828;49.956;8.636;2024-02-21T01:39:47;7.40;86.40
76099;DHT22;64828;49.956;8.636;2024-02-21T01:40:05;7.40;86.40
76099;DHT22;64828;49.956;8.636;2024-02-21T01:40:21;7.40;86.40
76099;DHT22;64828;49.956;8.636;2024-02-21T01:40:37;7.30;86.50
76099;DHT22;64828;49.956;8.636;2024-02-21T01:40:52;7.30;86.50
76099;DHT22;64828;49.956;8.636;2024-02-21T01:41:08;7.30;86.50